Aeroporto :
LOGIN :

Iscrizione | Disclaimer

   EN    FR    IT 

 










Sommario :    VFR   VFR Marginale   IFR   IFR Intensivo   IFR Molto Intensivo
Visibilità : 
Base nubi : 
>= 8 km
>= 3000ft
5 / 8 km
1000 / 3000 ft
1500m / 5 km
500 / 1000 ft
800 / 1500m
200 / 500 ft
< 800m
< 200 ft
Simboli :   Temporali  Nebbia  Neve Forte  Precipitazioni Forti  Vento > 20 kt
SIGMETs :   Varie  Temporali  Ghiacco  Turbolenza  Onda orograficha  Ceneri Vulcaniche






- Altitudine del aeroporto : 670 ft
- Codice IATA : MSQ


UMMS - Minsk - 2

ULTIMO METAR :
  • 210430Z 27006G10MPS 9999 BKN010 01/M00 Q1025 R31R/190050 R31L/////// NOSIG

METARs OBSOLETI :
  • 210400Z 27007G10MPS 9999 BKN010 01/M00 Q1025 R31R/190050 R31L/////// NOSIG
  • 210330Z 27007G10MPS 9999 BKN010 01/M00 Q1026 R31R/190050 R31L/////// NOSIG
  • 210300Z 28008G12MPS 9999 BKN011 01/M01 Q1026 R31R/190050 R31L/////// NOSIG
  • 210230Z 28008G11MPS 9999 BKN012 01/M01 Q1027 R31R/190050 R31L/////// NOSIG
  • 210200Z 28008G11MPS 9999 BKN013 01/M01 Q1027 R31R/190050 R31L/////// NOSIG

TAF TAF UMMS
Valido dal 21 a 00 ore il 22 a 00 ore UTC


202306Z 2100/2124 27007G12MPS 9999 BKN007 TX03/2112Z TNM00/2101Z
TEMPO 2100/2107 27011G16MPS 1500 -FZDZ -RASN BR BKN003
TEMPO 2107/2124 27012G17MPS 2100 -SHRA BKN004 BKN014CB



MetMap, La meteo Aeronautica in un colpo d'occhio ! - Copyright ORBIFLY Dicembre 2007 - Disclaimer

ORBIFLY MET'MAP TEAM :

Programmazione e sviluppo : Alexandra Zaïnal
Concezione : Baudouin d'Aumeries
Aiuto per la programmazione : Marc-Olivier Méhu
Supporto tecnico e logistico : Manuel Goepfert
Aiuto per la traduzione : Arnaldo La Scala

Contatto : metmap@orbifly.com




FONTI E CREDITI :

   NOAA